sensor_id;sensor_type;location;lat;lon;timestamp;temperature;humidity
47576;DHT22;33304;52.456;13.328;2022-10-16T00:01:05;15.50;78.30
47576;DHT22;33304;52.456;13.328;2022-10-16T00:03:33;15.60;78.40
47576;DHT22;33304;52.456;13.328;2022-10-16T00:06:01;15.60;78.20
47576;DHT22;33304;52.456;13.328;2022-10-16T00:08:30;15.60;78.00
47576;DHT22;33304;52.456;13.328;2022-10-16T00:11:02;15.60;78.00
47576;DHT22;33304;52.456;13.328;2022-10-16T00:13:29;15.60;78.30
47576;DHT22;33304;52.456;13.328;2022-10-16T00:15:58;15.60;78.10
47576;DHT22;33304;52.456;13.328;2022-10-16T00:18:25;15.60;77.10
47576;DHT22;33304;52.456;13.328;2022-10-16T00:20:52;15.60;77.50
47576;DHT22;33304;52.456;13.328;2022-10-16T00:23:20;15.60;77.50
47576;DHT22;33304;52.456;13.328;2022-10-16T00:25:56;15.60;77.80
47576;DHT22;33304;52.456;13.328;2022-10-16T00:28:24;15.60;78.30
47576;DHT22;33304;52.456;13.328;2022-10-16T00:30:51;15.60;78.40
47576;DHT22;33304;52.456;13.328;2022-10-16T00:33:18;15.60;78.10
47576;DHT22;33304;52.456;13.328;2022-10-16T00:35:46;15.60;78.20
47576;DHT22;33304;52.456;13.328;2022-10-16T00:38:13;15.60;77.80
47576;DHT22;33304;52.456;13.328;2022-10-16T00:40:40;15.70;77.40
47576;DHT22;33304;52.456;13.328;2022-10-16T00:43:14;15.70;77.00
47576;DHT22;33304;52.456;13.328;2022-10-16T00:45:59;15.70;77.00
47576;DHT22;33304;52.456;13.328;2022-10-16T00:48:26;15.70;76.50
47576;DHT22;33304;52.456;13.328;2022-10-16T00:50:53;15.70;77.10
47576;DHT22;33304;52.456;13.328;2022-10-16T00:53:21;15.70;76.50
47576;DHT22;33304;52.456;13.328;2022-10-16T00:55:48;15.70;76.70
47576;DHT22;33304;52.456;13.328;2022-10-16T00:58:17;15.70;77.10
47576;DHT22;33304;52.456;13.328;2022-10-16T01:00:44;15.80;76.10
47576;DHT22;33304;52.456;13.328;2022-10-16T01:03:24;15.70;76.40
47576;DHT22;33304;52.456;13.328;2022-10-16T01:06:04;15.70;76.70
47576;DHT22;33304;52.456;13.328;2022-10-16T01:08:44;15.80;76.20
47576;DHT22;33304;52.456;13.328;2022-10-16T01:11:19;15.80;74.40
47576;DHT22;33304;52.456;13.328;2022-10-16T01:13:54;15.70;74.20
47576;DHT22;33304;52.456;13.328;2022-10-16T01:16:30;15.70;74.90
47576;DHT22;33304;52.456;13.328;2022-10-16T01:19:03;15.70;74.60
47576;DHT22;33304;52.456;13.328;2022-10-16T01:21:33;15.70;75.10
47576;DHT22;33304;52.456;13.328;2022-10-16T01:24:08;15.70;75.40
47576;DHT22;33304;52.456;13.328;2022-10-16T01:26:46;15.70;75.10
47576;DHT22;33304;52.456;13.328;2022-10-16T01:29:21;15.60;76.00
47576;DHT22;33304;52.456;13.328;2022-10-16T01:31:53;15.60;76.60
47576;DHT22;33304;52.456;13.328;2022-10-16T01:34:27;15.50;78.60
47576;DHT22;33304;52.456;13.328;2022-10-16T01:36:59;15.60;79.30
47576;DHT22;33304;52.456;13.328;2022-10-16T01:39:31;15.50;79.40
47576;DHT22;33304;52.456;13.328;2022-10-16T01:42:03;15.40;81.20
47576;DHT22;33304;52.456;13.328;2022-10-16T01:44:34;15.40;83.80
47576;DHT22;33304;52.456;13.328;2022-10-16T01:47:03;15.30;86.20
47576;DHT22;33304;52.456;13.328;2022-10-16T01:49:33;15.30;89.00
47576;DHT22;33304;52.456;13.328;2022-10-16T01:52:06;15.30;91.00
47576;DHT22;33304;52.456;13.328;2022-10-16T01:54:36;15.20;92.80
47576;DHT22;33304;52.456;13.328;2022-10-16T01:57:05;15.20;95.50
47576;DHT22;33304;52.456;13.328;2022-10-16T01:59:56;15.10;99.40
47576;DHT22;33304;52.456;13.328;2022-10-16T02:02:27;15.10;99.90
47576;DHT22;33304;52.456;13.328;2022-10-16T02:04:59;15.10;99.90
47576;DHT22;33304;52.456;13.328;2022-10-16T02:07:28;15.10;99.90
47576;DHT22;33304;52.456;13.328;2022-10-16T02:09:56;15.10;99.90
47576;DHT22;33304;52.456;13.328;2022-10-16T02:12:26;15.10;99.90
47576;DHT22;33304;52.456;13.328;2022-10-16T02:14:55;15.10;99.90
47576;DHT22;33304;52.456;13.328;2022-10-16T02:17:23;15.20;99.90
47576;DHT22;33304;52.456;13.328;2022-10-16T02:19:53;15.20;99.90
47576;DHT22;33304;52.456;13.328;2022-10-16T02:22:24;15.20;99.90
47576;DHT22;33304;52.456;13.328;2022-10-16T02:24:56;15.20;99.90
47576;DHT22;33304;52.456;13.328;2022-10-16T02:27:27;15.20;99.90
47576;DHT22;33304;52.456;13.328;2022-10-16T02:30:01;15.20;99.90
47576;DHT22;33304;52.456;13.328;2022-10-16T02:32:34;15.30;99.90
47576;DHT22;33304;52.456;13.328;2022-10-16T02:35:02;15.30;99.90
47576;DHT22;33304;52.456;13.328;2022-10-16T02:37:30;15.30;99.90
47576;DHT22;33304;52.456;13.328;2022-10-16T02:39:58;15.30;99.90
47576;DHT22;33304;52.456;13.328;2022-10-16T02:42:32;15.30;99.90
47576;DHT22;33304;52.456;13.328;2022-10-16T02:45:01;15.40;99.50
47576;DHT22;33304;52.456;13.328;2022-10-16T02:47:29;15.30;99.50
47576;DHT22;33304;52.456;13.328;2022-10-16T02:49:56;15.40;98.50
47576;DHT22;33304;52.456;13.328;2022-10-16T02:52:23;15.30;97.70
47576;DHT22;33304;52.456;13.328;2022-10-16T02:54:50;15.30;97.90
47576;DHT22;33304;52.456;13.328;2022-10-16T02:57:17;15.30;98.40
47576;DHT22;33304;52.456;13.328;2022-10-16T02:59:45;15.20;99.30
47576;DHT22;33304;52.456;13.328;2022-10-16T03:02:13;15.20;99.90
47576;DHT22;33304;52.456;13.328;2022-10-16T03:04:40;15.20;99.90
47576;DHT22;33304;52.456;13.328;2022-10-16T03:07:07;15.10;99.90
47576;DHT22;33304;52.456;13.328;2022-10-16T03:09:34;15.30;99.90
47576;DHT22;33304;52.456;13.328;2022-10-16T03:12:01;15.30;98.40
47576;DHT22;33304;52.456;13.328;2022-10-16T03:14:29;15.20;99.50
47576;DHT22;33304;52.456;13.328;2022-10-16T03:16:56;15.10;99.90
47576;DHT22;33304;52.456;13.328;2022-10-16T03:19:24;15.00;99.90
47576;DHT22;33304;52.456;13.328;2022-10-16T03:21:51;15.00;99.90
47576;DHT22;33304;52.456;13.328;2022-10-16T03:24:18;15.00;99.90
47576;DHT22;33304;52.456;13.328;2022-10-16T03:26:45;15.00;99.90
47576;DHT22;33304;52.456;13.328;2022-10-16T03:29:12;15.10;99.90
47576;DHT22;33304;52.456;13.328;2022-10-16T03:31:39;15.00;99.90
47576;DHT22;33304;52.456;13.328;2022-10-16T03:34:07;14.90;99.90
47576;DHT22;33304;52.456;13.328;2022-10-16T03:36:35;14.90;99.90
47576;DHT22;33304;52.456;13.328;2022-10-16T03:39:02;14.90;99.90
47576;DHT22;33304;52.456;13.328;2022-10-16T03:41:29;14.80;99.90
47576;DHT22;33304;52.456;13.328;2022-10-16T03:43:57;14.80;99.90
47576;DHT22;33304;52.456;13.328;2022-10-16T03:46:24;14.80;99.90
47576;DHT22;33304;52.456;13.328;2022-10-16T03:48:51;14.80;99.90
47576;DHT22;33304;52.456;13.328;2022-10-16T03:51:18;14.70;99.90
47576;DHT22;33304;52.456;13.328;2022-10-16T03:53:46;14.70;99.90
47576;DHT22;33304;52.456;13.328;2022-10-16T03:56:13;14.70;99.90
47576;DHT22;33304;52.456;13.328;2022-10-16T03:58:41;14.70;99.90
47576;DHT22;33304;52.456;13.328;2022-10-16T04:01:08;14.70;99.90
47576;DHT22;33304;52.456;13.328;2022-10-16T04:03:35;14.80;99.90
47576;DHT22;33304;52.456;13.328;2022-10-16T04:06:02;14.70;99.90
47576;DHT22;33304;52.456;13.328;2022-10-16T04:08:29;14.80;99.90
47576;DHT22;33304;52.456;13.328;2022-10-16T04:10:58;14.80;99.90
47576;DHT22;33304;52.456;13.328;2022-10-16T04:13:25;14.80;99.90
47576;DHT22;33304;52.456;13.328;2022-10-16T04:15:52;14.70;99.90
47576;DHT22;33304;52.456;13.328;2022-10-16T04:18:19;14.70;99.90
47576;DHT22;33304;52.456;13.328;2022-10-16T04:20:46;14.70;99.90
47576;DHT22;33304;52.456;13.328;2022-10-16T04:23:13;14.70;99.90
47576;DHT22;33304;52.456;13.328;2022-10-16T04:25:40;14.80;99.90
47576;DHT22;33304;52.456;13.328;2022-10-16T04:28:08;14.80;99.90
47576;DHT22;33304;52.456;13.328;2022-10-16T04:30:37;14.80;99.90
47576;DHT22;33304;52.456;13.328;2022-10-16T04:33:04;14.80;99.90
47576;DHT22;33304;52.456;13.328;2022-10-16T04:35:32;14.80;99.90
47576;DHT22;33304;52.456;13.328;2022-10-16T04:37:59;14.80;99.90
47576;DHT22;33304;52.456;13.328;2022-10-16T04:40:26;14.80;99.90
47576;DHT22;33304;52.456;13.328;2022-10-16T04:42:53;14.70;99.90
47576;DHT22;33304;52.456;13.328;2022-10-16T04:45:21;14.60;99.90
47576;DHT22;33304;52.456;13.328;2022-10-16T04:47:48;14.60;99.90
47576;DHT22;33304;52.456;13.328;2022-10-16T04:50:15;14.60;99.90
47576;DHT22;33304;52.456;13.328;2022-10-16T04:53:00;14.60;99.90
47576;DHT22;33304;52.456;13.328;2022-10-16T04:55:27;14.50;99.90
47576;DHT22;33304;52.456;13.328;2022-10-16T04:57:55;14.50;99.90
47576;DHT22;33304;52.456;13.328;2022-10-16T05:00:23;14.40;99.90
47576;DHT22;33304;52.456;13.328;2022-10-16T05:02:50;14.50;99.90
47576;DHT22;33304;52.456;13.328;2022-10-16T05:05:18;14.50;99.90
47576;DHT22;33304;52.456;13.328;2022-10-16T05:07:45;14.50;99.90
47576;DHT22;33304;52.456;13.328;2022-10-16T05:10:13;14.50;99.90
47576;DHT22;33304;52.456;13.328;2022-10-16T05:12:40;14.50;99.90
47576;DHT22;33304;52.456;13.328;2022-10-16T05:15:08;14.40;99.90
47576;DHT22;33304;52.456;13.328;2022-10-16T05:17:36;14.40;99.90
47576;DHT22;33304;52.456;13.328;2022-10-16T05:20:05;14.40;99.90
47576;DHT22;33304;52.456;13.328;2022-10-16T05:22:32;14.40;99.90
47576;DHT22;33304;52.456;13.328;2022-10-16T05:24:59;14.30;99.90
47576;DHT22;33304;52.456;13.328;2022-10-16T05:27:26;14.30;99.90
47576;DHT22;33304;52.456;13.328;2022-10-16T05:29:53;14.20;99.90
47576;DHT22;33304;52.456;13.328;2022-10-16T05:32:20;14.20;99.90
47576;DHT22;33304;52.456;13.328;2022-10-16T05:34:50;14.10;99.90
47576;DHT22;33304;52.456;13.328;2022-10-16T05:37:17;14.10;99.90
47576;DHT22;33304;52.456;13.328;2022-10-16T05:39:44;14.20;99.90
47576;DHT22;33304;52.456;13.328;2022-10-16T05:42:11;14.20;99.90
47576;DHT22;33304;52.456;13.328;2022-10-16T05:44:38;14.20;99.90
47576;DHT22;33304;52.456;13.328;2022-10-16T05:47:05;14.30;99.90
47576;DHT22;33304;52.456;13.328;2022-10-16T05:49:32;14.30;99.90
47576;DHT22;33304;52.456;13.328;2022-10-16T05:52:01;14.20;99.90
47576;DHT22;33304;52.456;13.328;2022-10-16T05:54:28;14.20;99.90
47576;DHT22;33304;52.456;13.328;2022-10-16T05:56:55;14.20;99.90
47576;DHT22;33304;52.456;13.328;2022-10-16T05:59:22;14.20;99.90
47576;DHT22;33304;52.456;13.328;2022-10-16T06:01:49;14.10;99.90
47576;DHT22;33304;52.456;13.328;2022-10-16T06:04:16;14.20;99.90
47576;DHT22;33304;52.456;13.328;2022-10-16T06:06:43;14.20;99.90
47576;DHT22;33304;52.456;13.328;2022-10-16T06:09:11;14.10;99.90
47576;DHT22;33304;52.456;13.328;2022-10-16T06:11:39;14.20;99.90
47576;DHT22;33304;52.456;13.328;2022-10-16T06:14:06;14.20;99.90
47576;DHT22;33304;52.456;13.328;2022-10-16T06:16:33;14.20;99.90
47576;DHT22;33304;52.456;13.328;2022-10-16T06:19:01;14.20;99.90
47576;DHT22;33304;52.456;13.328;2022-10-16T06:21:30;14.40;99.90
47576;DHT22;33304;52.456;13.328;2022-10-16T06:23:57;14.60;99.90
47576;DHT22;33304;52.456;13.328;2022-10-16T06:26:27;14.50;99.90
47576;DHT22;33304;52.456;13.328;2022-10-16T06:28:55;14.40;99.90
47576;DHT22;33304;52.456;13.328;2022-10-16T06:31:22;14.50;99.90
47576;DHT22;33304;52.456;13.328;2022-10-16T06:33:54;14.50;99.90
47576;DHT22;33304;52.456;13.328;2022-10-16T06:36:22;14.60;99.90
47576;DHT22;33304;52.456;13.328;2022-10-16T06:38:50;14.60;99.90
47576;DHT22;33304;52.456;13.328;2022-10-16T06:41:18;14.70;99.90
47576;DHT22;33304;52.456;13.328;2022-10-16T06:43:47;14.70;99.90
47576;DHT22;33304;52.456;13.328;2022-10-16T06:46:16;14.70;99.90
47576;DHT22;33304;52.456;13.328;2022-10-16T06:48:44;14.60;99.90
47576;DHT22;33304;52.456;13.328;2022-10-16T06:51:13;14.70;99.90
47576;DHT22;33304;52.456;13.328;2022-10-16T06:53:41;14.70;99.90
47576;DHT22;33304;52.456;13.328;2022-10-16T06:56:10;14.80;99.90
47576;DHT22;33304;52.456;13.328;2022-10-16T06:58:38;14.80;99.90
47576;DHT22;33304;52.456;13.328;2022-10-16T07:01:07;14.80;99.90
47576;DHT22;33304;52.456;13.328;2022-10-16T07:03:36;14.80;99.90
47576;DHT22;33304;52.456;13.328;2022-10-16T07:06:05;14.90;99.90
47576;DHT22;33304;52.456;13.328;2022-10-16T07:08:33;15.10;99.90
47576;DHT22;33304;52.456;13.328;2022-10-16T07:11:00;15.20;99.90
47576;DHT22;33304;52.456;13.328;2022-10-16T07:13:28;15.40;99.90
47576;DHT22;33304;52.456;13.328;2022-10-16T07:15:55;15.60;92.20
47576;DHT22;33304;52.456;13.328;2022-10-16T07:18:23;15.60;91.70
47576;DHT22;33304;52.456;13.328;2022-10-16T07:20:52;15.70;90.20
47576;DHT22;33304;52.456;13.328;2022-10-16T07:23:20;15.80;85.40
47576;DHT22;33304;52.456;13.328;2022-10-16T07:25:53;15.80;80.90
47576;DHT22;33304;52.456;13.328;2022-10-16T07:28:21;15.80;80.60
47576;DHT22;33304;52.456;13.328;2022-10-16T07:30:48;15.90;81.20
47576;DHT22;33304;52.456;13.328;2022-10-16T07:33:15;16.10;73.90
47576;DHT22;33304;52.456;13.328;2022-10-16T07:35:49;16.20;71.10
47576;DHT22;33304;52.456;13.328;2022-10-16T07:38:17;16.20;69.10
47576;DHT22;33304;52.456;13.328;2022-10-16T07:40:44;16.20;69.70
47576;DHT22;33304;52.456;13.328;2022-10-16T07:43:11;16.20;68.00
47576;DHT22;33304;52.456;13.328;2022-10-16T07:45:46;16.30;66.40
47576;DHT22;33304;52.456;13.328;2022-10-16T07:48:13;16.30;67.70
47576;DHT22;33304;52.456;13.328;2022-10-16T07:50:40;16.30;67.00
47576;DHT22;33304;52.456;13.328;2022-10-16T07:53:09;16.40;65.30
47576;DHT22;33304;52.456;13.328;2022-10-16T07:55:37;16.30;65.80
47576;DHT22;33304;52.456;13.328;2022-10-16T07:58:04;16.30;65.80
47576;DHT22;33304;52.456;13.328;2022-10-16T08:00:32;16.50;65.40
47576;DHT22;33304;52.456;13.328;2022-10-16T08:03:00;16.50;63.80
47576;DHT22;33304;52.456;13.328;2022-10-16T08:05:27;16.50;63.90
47576;DHT22;33304;52.456;13.328;2022-10-16T08:07:55;16.60;63.00
47576;DHT22;33304;52.456;13.328;2022-10-16T08:10:25;16.80;60.60
47576;DHT22;33304;52.456;13.328;2022-10-16T08:12:53;16.70;61.40
47576;DHT22;33304;52.456;13.328;2022-10-16T08:15:20;16.60;61.70
47576;DHT22;33304;52.456;13.328;2022-10-16T08:17:54;16.60;61.50
47576;DHT22;33304;52.456;13.328;2022-10-16T08:20:21;16.60;61.50
47576;DHT22;33304;52.456;13.328;2022-10-16T08:22:48;16.70;60.50
47576;DHT22;33304;52.456;13.328;2022-10-16T08:25:16;16.80;60.60
47576;DHT22;33304;52.456;13.328;2022-10-16T08:27:44;16.80;60.60
47576;DHT22;33304;52.456;13.328;2022-10-16T08:30:12;16.80;60.60
47576;DHT22;33304;52.456;13.328;2022-10-16T08:32:40;16.90;59.30
47576;DHT22;33304;52.456;13.328;2022-10-16T08:35:08;16.90;59.00
47576;DHT22;33304;52.456;13.328;2022-10-16T08:37:36;17.00;58.30
47576;DHT22;33304;52.456;13.328;2022-10-16T08:40:05;17.10;55.70
47576;DHT22;33304;52.456;13.328;2022-10-16T08:42:45;17.00;55.20
47576;DHT22;33304;52.456;13.328;2022-10-16T08:45:39;17.00;55.20
47576;DHT22;33304;52.456;13.328;2022-10-16T08:48:17;17.00;55.60
47576;DHT22;33304;52.456;13.328;2022-10-16T08:50:48;17.00;56.20
47576;DHT22;33304;52.456;13.328;2022-10-16T08:53:20;17.00;55.20
47576;DHT22;33304;52.456;13.328;2022-10-16T08:55:51;17.00;55.70
47576;DHT22;33304;52.456;13.328;2022-10-16T09:02:20;17.10;53.00
47576;DHT22;33304;52.456;13.328;2022-10-16T09:04:57;17.10;53.50
47576;DHT22;33304;52.456;13.328;2022-10-16T09:07:32;17.10;53.70
47576;DHT22;33304;52.456;13.328;2022-10-16T09:10:12;17.30;52.50
47576;DHT22;33304;52.456;13.328;2022-10-16T09:12:48;17.50;50.20
47576;DHT22;33304;52.456;13.328;2022-10-16T09:15:24;17.60;48.80
47576;DHT22;33304;52.456;13.328;2022-10-16T09:18:02;17.70;47.80
47576;DHT22;33304;52.456;13.328;2022-10-16T09:20:38;17.70;47.70
47576;DHT22;33304;52.456;13.328;2022-10-16T09:23:13;17.80;47.00
47576;DHT22;33304;52.456;13.328;2022-10-16T09:25:43;17.90;45.80
47576;DHT22;33304;52.456;13.328;2022-10-16T09:28:11;18.00;45.70
47576;DHT22;33304;52.456;13.328;2022-10-16T09:30:38;18.00;45.50
47576;DHT22;33304;52.456;13.328;2022-10-16T09:33:08;18.10;44.10
47576;DHT22;33304;52.456;13.328;2022-10-16T09:35:38;18.00;44.50
47576;DHT22;33304;52.456;13.328;2022-10-16T09:38:06;18.00;44.60
47576;DHT22;33304;52.456;13.328;2022-10-16T09:40:35;18.10;43.60
47576;DHT22;33304;52.456;13.328;2022-10-16T09:43:12;18.20;43.80
47576;DHT22;33304;52.456;13.328;2022-10-16T09:45:57;18.30;42.30
47576;DHT22;33304;52.456;13.328;2022-10-16T09:48:30;18.50;40.20
47576;DHT22;33304;52.456;13.328;2022-10-16T09:51:00;18.50;39.80
47576;DHT22;33304;52.456;13.328;2022-10-16T09:53:39;18.50;39.30
47576;DHT22;33304;52.456;13.328;2022-10-16T09:56:06;18.40;40.20
47576;DHT22;33304;52.456;13.328;2022-10-16T09:58:34;18.50;40.10
47576;DHT22;33304;52.456;13.328;2022-10-16T10:01:03;18.30;39.90
47576;DHT22;33304;52.456;13.328;2022-10-16T10:03:36;18.30;40.00
47576;DHT22;33304;52.456;13.328;2022-10-16T10:06:18;18.50;39.30
47576;DHT22;33304;52.456;13.328;2022-10-16T10:09:03;18.70;39.50
47576;DHT22;33304;52.456;13.328;2022-10-16T10:11:38;18.90;38.10
47576;DHT22;33304;52.456;13.328;2022-10-16T10:14:06;19.00;36.40
47576;DHT22;33304;52.456;13.328;2022-10-16T10:16:36;19.00;36.20
47576;DHT22;33304;52.456;13.328;2022-10-16T10:19:04;19.00;35.60
47576;DHT22;33304;52.456;13.328;2022-10-16T10:21:33;19.10;35.30
47576;DHT22;33304;52.456;13.328;2022-10-16T10:24:00;19.10;34.90
47576;DHT22;33304;52.456;13.328;2022-10-16T10:26:31;19.10;34.50
47576;DHT22;33304;52.456;13.328;2022-10-16T10:29:04;19.30;34.50
47576;DHT22;33304;52.456;13.328;2022-10-16T10:31:38;19.30;33.10
47576;DHT22;33304;52.456;13.328;2022-10-16T10:34:25;19.20;32.60
47576;DHT22;33304;52.456;13.328;2022-10-16T10:36:58;19.20;33.00
47576;DHT22;33304;52.456;13.328;2022-10-16T10:39:34;19.30;32.10
47576;DHT22;33304;52.456;13.328;2022-10-16T10:42:14;19.40;30.90
47576;DHT22;33304;52.456;13.328;2022-10-16T10:44:57;19.60;30.90
47576;DHT22;33304;52.456;13.328;2022-10-16T10:47:36;19.80;28.90
47576;DHT22;33304;52.456;13.328;2022-10-16T10:50:14;19.80;28.60
47576;DHT22;33304;52.456;13.328;2022-10-16T10:52:53;19.80;28.70
47576;DHT22;33304;52.456;13.328;2022-10-16T10:55:31;19.80;28.90
47576;DHT22;33304;52.456;13.328;2022-10-16T10:58:17;19.90;28.30
47576;DHT22;33304;52.456;13.328;2022-10-16T11:00:51;19.80;27.80
47576;DHT22;33304;52.456;13.328;2022-10-16T11:03:33;19.70;27.60
47576;DHT22;33304;52.456;13.328;2022-10-16T11:06:06;19.70;28.80
47576;DHT22;33304;52.456;13.328;2022-10-16T11:08:36;19.80;28.90
47576;DHT22;33304;52.456;13.328;2022-10-16T11:11:10;20.20;27.10
47576;DHT22;33304;52.456;13.328;2022-10-16T11:13:43;20.70;26.70
47576;DHT22;33304;52.456;13.328;2022-10-16T11:16:16;21.00;24.30
47576;DHT22;33304;52.456;13.328;2022-10-16T11:18:50;20.90;23.50
47576;DHT22;33304;52.456;13.328;2022-10-16T11:21:21;21.00;21.50
47576;DHT22;33304;52.456;13.328;2022-10-16T11:23:53;20.80;22.40
47576;DHT22;33304;52.456;13.328;2022-10-16T11:26:26;20.80;22.10
47576;DHT22;33304;52.456;13.328;2022-10-16T11:28:55;20.70;23.80
47576;DHT22;33304;52.456;13.328;2022-10-16T11:31:28;20.70;22.50
47576;DHT22;33304;52.456;13.328;2022-10-16T11:34:03;20.50;22.40
47576;DHT22;33304;52.456;13.328;2022-10-16T11:36:38;20.50;20.50
47576;DHT22;33304;52.456;13.328;2022-10-16T11:39:16;20.40;21.30
47576;DHT22;33304;52.456;13.328;2022-10-16T11:41:48;20.50;20.50
47576;DHT22;33304;52.456;13.328;2022-10-16T11:44:35;20.50;20.70
47576;DHT22;33304;52.456;13.328;2022-10-16T11:47:12;20.60;20.10
47576;DHT22;33304;52.456;13.328;2022-10-16T11:49:40;20.60;19.80
47576;DHT22;33304;52.456;13.328;2022-10-16T11:52:16;20.80;20.00
47576;DHT22;33304;52.456;13.328;2022-10-16T11:54:47;20.70;19.80
47576;DHT22;33304;52.456;13.328;2022-10-16T11:57:20;20.70;19.80
47576;DHT22;33304;52.456;13.328;2022-10-16T11:59:51;20.40;19.60
47576;DHT22;33304;52.456;13.328;2022-10-16T12:02:33;20.30;19.60
47576;DHT22;33304;52.456;13.328;2022-10-16T12:05:12;20.30;19.50
47576;DHT22;33304;52.456;13.328;2022-10-16T12:07:49;20.60;19.10
47576;DHT22;33304;52.456;13.328;2022-10-16T12:10:20;20.60;18.00
47576;DHT22;33304;52.456;13.328;2022-10-16T12:12:48;20.80;18.20
47576;DHT22;33304;52.456;13.328;2022-10-16T12:15:21;20.70;17.90
47576;DHT22;33304;52.456;13.328;2022-10-16T12:17:50;20.80;17.90
47576;DHT22;33304;52.456;13.328;2022-10-16T12:20:23;21.30;17.20
47576;DHT22;33304;52.456;13.328;2022-10-16T12:22:54;21.70;16.40
47576;DHT22;33304;52.456;13.328;2022-10-16T12:25:25;22.30;14.50
47576;DHT22;33304;52.456;13.328;2022-10-16T12:27:56;22.30;14.20
47576;DHT22;33304;52.456;13.328;2022-10-16T12:30:25;22.50;14.10
47576;DHT22;33304;52.456;13.328;2022-10-16T12:32:53;22.70;13.70
47576;DHT22;33304;52.456;13.328;2022-10-16T12:35:22;22.70;12.80
47576;DHT22;33304;52.456;13.328;2022-10-16T12:37:50;22.60;12.50
47576;DHT22;33304;52.456;13.328;2022-10-16T12:40:26;22.50;11.60
47576;DHT22;33304;52.456;13.328;2022-10-16T12:42:54;22.60;11.90
47576;DHT22;33304;52.456;13.328;2022-10-16T12:45:28;22.90;11.40
47576;DHT22;33304;52.456;13.328;2022-10-16T12:47:58;23.40;11.70
47576;DHT22;33304;52.456;13.328;2022-10-16T12:50:32;23.60;11.10
47576;DHT22;33304;52.456;13.328;2022-10-16T12:53:00;24.00;9.90
47576;DHT22;33304;52.456;13.328;2022-10-16T12:55:34;24.30;8.60
47576;DHT22;33304;52.456;13.328;2022-10-16T12:58:13;25.00;6.70
47576;DHT22;33304;52.456;13.328;2022-10-16T13:00:45;25.50;5.20
47576;DHT22;33304;52.456;13.328;2022-10-16T13:03:31;26.10;5.00
47576;DHT22;33304;52.456;13.328;2022-10-16T13:06:12;25.70;4.00
47576;DHT22;33304;52.456;13.328;2022-10-16T13:08:52;26.30;3.10
47576;DHT22;33304;52.456;13.328;2022-10-16T13:11:29;27.20;2.10
47576;DHT22;33304;52.456;13.328;2022-10-16T13:14:23;27.10;1.20
47576;DHT22;33304;52.456;13.328;2022-10-16T13:16:59;26.20;3.00
47576;DHT22;33304;52.456;13.328;2022-10-16T13:19:33;26.90;1.60
47576;DHT22;33304;52.456;13.328;2022-10-16T13:22:05;25.30;3.50
47576;DHT22;33304;52.456;13.328;2022-10-16T13:24:48;24.40;5.40
47576;DHT22;33304;52.456;13.328;2022-10-16T13:27:29;23.80;7.40
47576;DHT22;33304;52.456;13.328;2022-10-16T13:30:10;23.70;8.00
47576;DHT22;33304;52.456;13.328;2022-10-16T13:32:39;23.50;8.00
47576;DHT22;33304;52.456;13.328;2022-10-16T13:35:19;23.40;9.00
47576;DHT22;33304;52.456;13.328;2022-10-16T13:37:47;24.10;8.20
47576;DHT22;33304;52.456;13.328;2022-10-16T13:40:20;24.50;7.10
47576;DHT22;33304;52.456;13.328;2022-10-16T13:42:49;24.80;6.70
47576;DHT22;33304;52.456;13.328;2022-10-16T13:45:20;25.00;6.00
47576;DHT22;33304;52.456;13.328;2022-10-16T13:47:48;25.50;5.40
47576;DHT22;33304;52.456;13.328;2022-10-16T13:50:17;26.30;3.10
47576;DHT22;33304;52.456;13.328;2022-10-16T13:52:45;25.80;4.10
47576;DHT22;33304;52.456;13.328;2022-10-16T13:55:13;25.00;6.90
47576;DHT22;33304;52.456;13.328;2022-10-16T13:57:40;24.30;6.80
47576;DHT22;33304;52.456;13.328;2022-10-16T14:00:23;24.70;6.90
47576;DHT22;33304;52.456;13.328;2022-10-16T14:02:53;25.30;6.90
47576;DHT22;33304;52.456;13.328;2022-10-16T14:05:22;26.50;4.20
47576;DHT22;33304;52.456;13.328;2022-10-16T14:07:50;27.30;2.60
47576;DHT22;33304;52.456;13.328;2022-10-16T14:10:22;27.30;2.30
47576;DHT22;33304;52.456;13.328;2022-10-16T14:13:01;27.30;1.80
47576;DHT22;33304;52.456;13.328;2022-10-16T14:15:31;27.30;2.20
47576;DHT22;33304;52.456;13.328;2022-10-16T14:17:59;28.00;1.00
47576;DHT22;33304;52.456;13.328;2022-10-16T14:20:28;27.20;1.20
47576;DHT22;33304;52.456;13.328;2022-10-16T14:23:00;27.20;2.10
47576;DHT22;33304;52.456;13.328;2022-10-16T14:25:29;26.50;2.20
47576;DHT22;33304;52.456;13.328;2022-10-16T14:27:59;25.60;2.70
47576;DHT22;33304;52.456;13.328;2022-10-16T14:30:27;24.30;6.30
47576;DHT22;33304;52.456;13.328;2022-10-16T14:32:57;24.30;6.50
47576;DHT22;33304;52.456;13.328;2022-10-16T14:35:28;25.00;5.30
47576;DHT22;33304;52.456;13.328;2022-10-16T14:37:56;25.70;3.90
47576;DHT22;33304;52.456;13.328;2022-10-16T14:40:26;26.20;3.00
47576;DHT22;33304;52.456;13.328;2022-10-16T14:42:54;26.10;3.00
47576;DHT22;33304;52.456;13.328;2022-10-16T14:45:23;26.50;2.50
47576;DHT22;33304;52.456;13.328;2022-10-16T14:47:53;26.40;2.10
47576;DHT22;33304;52.456;13.328;2022-10-16T14:50:22;25.90;2.90
47576;DHT22;33304;52.456;13.328;2022-10-16T14:52:50;25.90;3.50
47576;DHT22;33304;52.456;13.328;2022-10-16T14:55:17;25.60;2.70
47576;DHT22;33304;52.456;13.328;2022-10-16T14:57:45;25.20;3.10
47576;DHT22;33304;52.456;13.328;2022-10-16T15:00:17;25.10;3.20
47576;DHT22;33304;52.456;13.328;2022-10-16T15:02:45;24.80;3.70
47576;DHT22;33304;52.456;13.328;2022-10-16T15:05:17;24.70;4.50
47576;DHT22;33304;52.456;13.328;2022-10-16T15:07:46;24.70;5.20
47576;DHT22;33304;52.456;13.328;2022-10-16T15:10:15;24.10;5.00
47576;DHT22;33304;52.456;13.328;2022-10-16T15:12:43;23.60;6.40
47576;DHT22;33304;52.456;13.328;2022-10-16T15:15:36;23.00;6.30
47576;DHT22;33304;52.456;13.328;2022-10-16T15:18:04;22.30;7.60
47576;DHT22;33304;52.456;13.328;2022-10-16T15:20:33;22.00;8.00
47576;DHT22;33304;52.456;13.328;2022-10-16T15:23:03;21.90;9.20
47576;DHT22;33304;52.456;13.328;2022-10-16T15:25:35;21.40;9.60
47576;DHT22;33304;52.456;13.328;2022-10-16T15:28:05;21.20;10.20
47576;DHT22;33304;52.456;13.328;2022-10-16T15:30:34;21.10;10.20
47576;DHT22;33304;52.456;13.328;2022-10-16T15:33:02;20.90;10.60
47576;DHT22;33304;52.456;13.328;2022-10-16T15:35:30;20.70;11.40
47576;DHT22;33304;52.456;13.328;2022-10-16T15:37:57;20.50;11.80
47576;DHT22;33304;52.456;13.328;2022-10-16T15:40:26;20.40;12.10
47576;DHT22;33304;52.456;13.328;2022-10-16T15:42:53;20.30;12.70